sensor_id;sensor_type;location;lat;lon;timestamp;temperature;humidity
62339;DHT22;48368;53.406;6.214;2023-07-31T00:00:35;16.60;99.90
62339;DHT22;48368;53.406;6.214;2023-07-31T00:03:01;16.60;99.90
62339;DHT22;48368;53.406;6.214;2023-07-31T00:05:27;16.60;99.90
62339;DHT22;48368;53.406;6.214;2023-07-31T00:07:52;16.60;99.90
62339;DHT22;48368;53.406;6.214;2023-07-31T00:10:20;16.60;99.90
62339;DHT22;48368;53.406;6.214;2023-07-31T00:12:46;16.60;99.90
62339;DHT22;48368;53.406;6.214;2023-07-31T00:15:13;16.60;99.90
62339;DHT22;48368;53.406;6.214;2023-07-31T00:17:38;16.60;99.90
62339;DHT22;48368;53.406;6.214;2023-07-31T00:20:04;16.60;99.90
62339;DHT22;48368;53.406;6.214;2023-07-31T00:22:30;16.60;99.90
62339;DHT22;48368;53.406;6.214;2023-07-31T00:24:56;16.50;99.90
62339;DHT22;48368;53.406;6.214;2023-07-31T00:27:22;16.50;99.90
62339;DHT22;48368;53.406;6.214;2023-07-31T00:29:48;16.50;99.90
62339;DHT22;48368;53.406;6.214;2023-07-31T00:32:13;16.60;99.90
62339;DHT22;48368;53.406;6.214;2023-07-31T00:34:39;16.50;99.90
62339;DHT22;48368;53.406;6.214;2023-07-31T00:37:05;16.50;99.90
62339;DHT22;48368;53.406;6.214;2023-07-31T00:39:31;16.50;99.90
62339;DHT22;48368;53.406;6.214;2023-07-31T00:41:56;16.50;99.90
62339;DHT22;48368;53.406;6.214;2023-07-31T00:44:22;16.50;99.90
62339;DHT22;48368;53.406;6.214;2023-07-31T00:46:48;16.60;99.90
62339;DHT22;48368;53.406;6.214;2023-07-31T00:49:14;16.50;99.90
62339;DHT22;48368;53.406;6.214;2023-07-31T00:51:40;16.50;99.90
62339;DHT22;48368;53.406;6.214;2023-07-31T00:54:06;16.60;99.90
62339;DHT22;48368;53.406;6.214;2023-07-31T00:56:32;16.50;99.90
62339;DHT22;48368;53.406;6.214;2023-07-31T00:58:58;16.50;99.90
62339;DHT22;48368;53.406;6.214;2023-07-31T01:01:24;16.60;99.90
62339;DHT22;48368;53.406;6.214;2023-07-31T01:03:51;16.50;99.90
62339;DHT22;48368;53.406;6.214;2023-07-31T01:09:16;16.60;99.90
62339;DHT22;48368;53.406;6.214;2023-07-31T01:11:50;16.50;99.90
62339;DHT22;48368;53.406;6.214;2023-07-31T01:14:17;16.60;99.90
62339;DHT22;48368;53.406;6.214;2023-07-31T01:16:43;16.50;99.90
62339;DHT22;48368;53.406;6.214;2023-07-31T01:19:09;16.50;99.90
62339;DHT22;48368;53.406;6.214;2023-07-31T01:24:20;16.60;99.90
62339;DHT22;48368;53.406;6.214;2023-07-31T01:26:56;16.50;99.90
62339;DHT22;48368;53.406;6.214;2023-07-31T01:30:15;16.50;99.90
62339;DHT22;48368;53.406;6.214;2023-07-31T01:32:22;16.50;99.90
62339;DHT22;48368;53.406;6.214;2023-07-31T01:34:50;16.50;99.90
62339;DHT22;48368;53.406;6.214;2023-07-31T01:37:16;16.50;99.90
62339;DHT22;48368;53.406;6.214;2023-07-31T01:39:42;16.50;99.90
62339;DHT22;48368;53.406;6.214;2023-07-31T01:42:07;16.50;99.90
62339;DHT22;48368;53.406;6.214;2023-07-31T01:44:33;16.50;99.90
62339;DHT22;48368;53.406;6.214;2023-07-31T01:46:59;16.50;99.90
62339;DHT22;48368;53.406;6.214;2023-07-31T01:49:25;16.50;99.90
62339;DHT22;48368;53.406;6.214;2023-07-31T01:51:51;16.60;99.90
62339;DHT22;48368;53.406;6.214;2023-07-31T01:54:17;16.50;99.90
62339;DHT22;48368;53.406;6.214;2023-07-31T01:56:42;16.50;99.90
62339;DHT22;48368;53.406;6.214;2023-07-31T01:59:08;16.50;99.90
62339;DHT22;48368;53.406;6.214;2023-07-31T02:01:33;16.50;99.90
62339;DHT22;48368;53.406;6.214;2023-07-31T02:04:01;16.50;99.90
62339;DHT22;48368;53.406;6.214;2023-07-31T02:06:27;16.40;99.90
62339;DHT22;48368;53.406;6.214;2023-07-31T02:08:52;16.40;99.90
62339;DHT22;48368;53.406;6.214;2023-07-31T02:11:18;16.40;99.90
62339;DHT22;48368;53.406;6.214;2023-07-31T02:13:43;16.40;99.90
62339;DHT22;48368;53.406;6.214;2023-07-31T02:16:09;16.30;99.90
62339;DHT22;48368;53.406;6.214;2023-07-31T02:18:35;16.40;99.90
62339;DHT22;48368;53.406;6.214;2023-07-31T02:21:00;16.30;99.90
62339;DHT22;48368;53.406;6.214;2023-07-31T02:23:26;16.30;99.90
62339;DHT22;48368;53.406;6.214;2023-07-31T02:25:51;16.40;99.90
62339;DHT22;48368;53.406;6.214;2023-07-31T02:28:17;16.30;99.90
62339;DHT22;48368;53.406;6.214;2023-07-31T02:30:46;16.30;99.90
62339;DHT22;48368;53.406;6.214;2023-07-31T02:33:12;16.20;99.90
62339;DHT22;48368;53.406;6.214;2023-07-31T02:35:37;16.30;99.90
62339;DHT22;48368;53.406;6.214;2023-07-31T02:38:03;16.30;99.90
62339;DHT22;48368;53.406;6.214;2023-07-31T02:40:28;16.30;99.90
62339;DHT22;48368;53.406;6.214;2023-07-31T02:42:54;16.30;99.90
62339;DHT22;48368;53.406;6.214;2023-07-31T02:45:20;16.20;99.90
62339;DHT22;48368;53.406;6.214;2023-07-31T02:47:45;16.20;99.90
62339;DHT22;48368;53.406;6.214;2023-07-31T02:50:11;16.30;99.90
62339;DHT22;48368;53.406;6.214;2023-07-31T02:52:36;16.30;99.90
62339;DHT22;48368;53.406;6.214;2023-07-31T02:55:02;16.20;99.90
62339;DHT22;48368;53.406;6.214;2023-07-31T02:57:28;16.20;99.90
62339;DHT22;48368;53.406;6.214;2023-07-31T02:59:53;16.10;99.90
62339;DHT22;48368;53.406;6.214;2023-07-31T03:02:19;16.20;99.90
62339;DHT22;48368;53.406;6.214;2023-07-31T03:04:45;16.10;99.90
62339;DHT22;48368;53.406;6.214;2023-07-31T03:07:11;16.10;99.90
62339;DHT22;48368;53.406;6.214;2023-07-31T03:09:36;16.10;99.90
62339;DHT22;48368;53.406;6.214;2023-07-31T03:12:05;16.10;99.90
62339;DHT22;48368;53.406;6.214;2023-07-31T03:14:31;16.00;99.90
62339;DHT22;48368;53.406;6.214;2023-07-31T03:16:56;16.00;99.90
62339;DHT22;48368;53.406;6.214;2023-07-31T03:19:22;16.00;99.90
62339;DHT22;48368;53.406;6.214;2023-07-31T03:21:47;16.00;99.90
62339;DHT22;48368;53.406;6.214;2023-07-31T03:24:13;16.00;99.90
62339;DHT22;48368;53.406;6.214;2023-07-31T03:26:39;15.90;99.90
62339;DHT22;48368;53.406;6.214;2023-07-31T03:29:07;15.90;99.90
62339;DHT22;48368;53.406;6.214;2023-07-31T03:31:33;16.00;99.90
62339;DHT22;48368;53.406;6.214;2023-07-31T03:33:58;16.00;99.90
62339;DHT22;48368;53.406;6.214;2023-07-31T03:36:24;15.90;99.90
62339;DHT22;48368;53.406;6.214;2023-07-31T03:38:51;15.90;99.90
62339;DHT22;48368;53.406;6.214;2023-07-31T03:41:17;15.90;99.90
62339;DHT22;48368;53.406;6.214;2023-07-31T03:43:42;15.90;99.90
62339;DHT22;48368;53.406;6.214;2023-07-31T03:46:08;16.00;99.90
62339;DHT22;48368;53.406;6.214;2023-07-31T03:48:34;16.00;99.90
62339;DHT22;48368;53.406;6.214;2023-07-31T03:50:59;16.00;99.90
62339;DHT22;48368;53.406;6.214;2023-07-31T03:53:25;15.80;99.90
62339;DHT22;48368;53.406;6.214;2023-07-31T03:55:50;15.90;99.90
62339;DHT22;48368;53.406;6.214;2023-07-31T03:58:16;15.80;99.90
62339;DHT22;48368;53.406;6.214;2023-07-31T04:00:42;15.80;99.90
62339;DHT22;48368;53.406;6.214;2023-07-31T04:03:07;15.80;99.90
62339;DHT22;48368;53.406;6.214;2023-07-31T04:05:33;15.90;99.90
62339;DHT22;48368;53.406;6.214;2023-07-31T04:07:59;15.80;99.90
62339;DHT22;48368;53.406;6.214;2023-07-31T04:10:24;15.90;99.90
62339;DHT22;48368;53.406;6.214;2023-07-31T04:12:50;15.90;99.90
62339;DHT22;48368;53.406;6.214;2023-07-31T04:15:16;15.90;99.90
62339;DHT22;48368;53.406;6.214;2023-07-31T04:17:42;15.90;99.90
62339;DHT22;48368;53.406;6.214;2023-07-31T04:20:07;16.00;99.90
62339;DHT22;48368;53.406;6.214;2023-07-31T04:22:33;15.90;99.90
62339;DHT22;48368;53.406;6.214;2023-07-31T04:24:59;15.90;99.90
62339;DHT22;48368;53.406;6.214;2023-07-31T04:27:25;15.80;99.90
62339;DHT22;48368;53.406;6.214;2023-07-31T04:29:53;15.90;99.90
62339;DHT22;48368;53.406;6.214;2023-07-31T04:32:19;15.90;99.90
62339;DHT22;48368;53.406;6.214;2023-07-31T04:34:48;15.80;99.90
62339;DHT22;48368;53.406;6.214;2023-07-31T04:37:17;15.90;99.90
62339;DHT22;48368;53.406;6.214;2023-07-31T04:39:42;15.90;99.90
62339;DHT22;48368;53.406;6.214;2023-07-31T04:42:08;15.90;99.90
62339;DHT22;48368;53.406;6.214;2023-07-31T04:44:33;15.80;99.90
62339;DHT22;48368;53.406;6.214;2023-07-31T04:46:59;15.80;99.90
62339;DHT22;48368;53.406;6.214;2023-07-31T04:49:25;15.90;99.90
62339;DHT22;48368;53.406;6.214;2023-07-31T04:51:50;15.90;99.90
62339;DHT22;48368;53.406;6.214;2023-07-31T04:54:16;15.90;99.90
62339;DHT22;48368;53.406;6.214;2023-07-31T04:56:42;15.90;99.90
62339;DHT22;48368;53.406;6.214;2023-07-31T04:59:08;15.90;99.90
62339;DHT22;48368;53.406;6.214;2023-07-31T05:01:33;15.90;99.90
62339;DHT22;48368;53.406;6.214;2023-07-31T05:04:00;15.80;99.90
62339;DHT22;48368;53.406;6.214;2023-07-31T05:06:27;15.80;99.90
62339;DHT22;48368;53.406;6.214;2023-07-31T05:08:53;15.80;99.90
62339;DHT22;48368;53.406;6.214;2023-07-31T05:11:19;15.90;99.90
62339;DHT22;48368;53.406;6.214;2023-07-31T05:13:44;15.80;99.90
62339;DHT22;48368;53.406;6.214;2023-07-31T05:16:10;15.90;99.90
62339;DHT22;48368;53.406;6.214;2023-07-31T05:18:36;15.80;99.90
62339;DHT22;48368;53.406;6.214;2023-07-31T05:21:01;15.80;99.90
62339;DHT22;48368;53.406;6.214;2023-07-31T05:23:27;15.90;99.90
62339;DHT22;48368;53.406;6.214;2023-07-31T05:25:53;15.90;99.90
62339;DHT22;48368;53.406;6.214;2023-07-31T05:28:18;15.80;99.90
62339;DHT22;48368;53.406;6.214;2023-07-31T05:30:44;15.80;99.90
62339;DHT22;48368;53.406;6.214;2023-07-31T05:33:10;15.80;99.90
62339;DHT22;48368;53.406;6.214;2023-07-31T05:35:35;15.90;99.90
62339;DHT22;48368;53.406;6.214;2023-07-31T05:38:01;15.90;99.90
62339;DHT22;48368;53.406;6.214;2023-07-31T05:40:26;15.90;99.90
62339;DHT22;48368;53.406;6.214;2023-07-31T05:42:52;15.90;99.90
62339;DHT22;48368;53.406;6.214;2023-07-31T05:45:18;15.90;99.90
62339;DHT22;48368;53.406;6.214;2023-07-31T05:47:43;15.90;99.90
62339;DHT22;48368;53.406;6.214;2023-07-31T05:50:09;15.90;99.90
62339;DHT22;48368;53.406;6.214;2023-07-31T05:52:35;15.90;99.90
62339;DHT22;48368;53.406;6.214;2023-07-31T05:55:00;16.00;99.90
62339;DHT22;48368;53.406;6.214;2023-07-31T05:57:27;15.90;99.90
62339;DHT22;48368;53.406;6.214;2023-07-31T05:59:52;16.00;99.90
62339;DHT22;48368;53.406;6.214;2023-07-31T06:02:21;16.10;99.90
62339;DHT22;48368;53.406;6.214;2023-07-31T06:04:47;16.10;99.90
62339;DHT22;48368;53.406;6.214;2023-07-31T06:07:14;16.10;99.90
62339;DHT22;48368;53.406;6.214;2023-07-31T06:09:39;16.10;99.90
62339;DHT22;48368;53.406;6.214;2023-07-31T06:12:05;16.20;99.90
62339;DHT22;48368;53.406;6.214;2023-07-31T06:14:31;16.20;99.90
62339;DHT22;48368;53.406;6.214;2023-07-31T06:16:56;16.20;99.90
62339;DHT22;48368;53.406;6.214;2023-07-31T06:19:22;16.20;99.90
62339;DHT22;48368;53.406;6.214;2023-07-31T06:21:48;16.30;99.90
62339;DHT22;48368;53.406;6.214;2023-07-31T06:24:13;16.30;99.90
62339;DHT22;48368;53.406;6.214;2023-07-31T06:26:44;16.20;99.90
62339;DHT22;48368;53.406;6.214;2023-07-31T06:29:10;16.30;99.90
62339;DHT22;48368;53.406;6.214;2023-07-31T06:31:35;16.20;99.90
62339;DHT22;48368;53.406;6.214;2023-07-31T06:34:01;16.20;99.90
62339;DHT22;48368;53.406;6.214;2023-07-31T06:36:26;16.20;99.90
62339;DHT22;48368;53.406;6.214;2023-07-31T06:38:52;16.30;99.90
62339;DHT22;48368;53.406;6.214;2023-07-31T06:41:18;16.30;99.90
62339;DHT22;48368;53.406;6.214;2023-07-31T06:43:45;16.30;99.90
62339;DHT22;48368;53.406;6.214;2023-07-31T06:46:11;16.30;99.90
62339;DHT22;48368;53.406;6.214;2023-07-31T06:48:39;16.30;99.90
62339;DHT22;48368;53.406;6.214;2023-07-31T06:51:05;16.40;99.90
62339;DHT22;48368;53.406;6.214;2023-07-31T06:53:30;16.40;99.90
62339;DHT22;48368;53.406;6.214;2023-07-31T06:55:56;16.40;99.90
62339;DHT22;48368;53.406;6.214;2023-07-31T06:58:22;16.50;99.90
62339;DHT22;48368;53.406;6.214;2023-07-31T07:00:47;16.50;99.90
62339;DHT22;48368;53.406;6.214;2023-07-31T07:03:15;16.50;99.90
62339;DHT22;48368;53.406;6.214;2023-07-31T07:05:41;16.60;99.90
62339;DHT22;48368;53.406;6.214;2023-07-31T07:08:07;16.50;99.90
62339;DHT22;48368;53.406;6.214;2023-07-31T07:10:33;16.60;99.90
62339;DHT22;48368;53.406;6.214;2023-07-31T07:12:58;16.60;99.90
62339;DHT22;48368;53.406;6.214;2023-07-31T07:15:24;16.70;99.90
62339;DHT22;48368;53.406;6.214;2023-07-31T07:17:50;16.80;99.90
62339;DHT22;48368;53.406;6.214;2023-07-31T07:20:16;16.80;99.90
62339;DHT22;48368;53.406;6.214;2023-07-31T07:22:41;16.60;99.90
62339;DHT22;48368;53.406;6.214;2023-07-31T07:25:08;16.70;99.90
62339;DHT22;48368;53.406;6.214;2023-07-31T07:27:34;16.80;99.90
62339;DHT22;48368;53.406;6.214;2023-07-31T07:30:00;16.70;99.90
62339;DHT22;48368;53.406;6.214;2023-07-31T07:32:26;16.70;99.90
62339;DHT22;48368;53.406;6.214;2023-07-31T07:34:51;16.80;99.90
62339;DHT22;48368;53.406;6.214;2023-07-31T07:37:17;16.80;99.90
62339;DHT22;48368;53.406;6.214;2023-07-31T07:39:43;16.80;99.90
62339;DHT22;48368;53.406;6.214;2023-07-31T07:42:09;16.70;99.90
62339;DHT22;48368;53.406;6.214;2023-07-31T07:44:34;16.80;99.90
62339;DHT22;48368;53.406;6.214;2023-07-31T07:47:00;16.80;99.90
62339;DHT22;48368;53.406;6.214;2023-07-31T07:49:25;16.90;99.90
62339;DHT22;48368;53.406;6.214;2023-07-31T07:51:51;16.80;99.90
62339;DHT22;48368;53.406;6.214;2023-07-31T07:54:17;17.00;99.90
62339;DHT22;48368;53.406;6.214;2023-07-31T07:56:42;17.00;99.90
62339;DHT22;48368;53.406;6.214;2023-07-31T07:59:08;17.00;99.90
62339;DHT22;48368;53.406;6.214;2023-07-31T08:01:34;16.90;99.90
62339;DHT22;48368;53.406;6.214;2023-07-31T08:04:01;17.00;99.90
62339;DHT22;48368;53.406;6.214;2023-07-31T08:06:27;17.00;99.90
62339;DHT22;48368;53.406;6.214;2023-07-31T08:08:55;17.10;99.90
62339;DHT22;48368;53.406;6.214;2023-07-31T08:11:20;17.10;99.90
62339;DHT22;48368;53.406;6.214;2023-07-31T08:13:48;17.10;99.90
62339;DHT22;48368;53.406;6.214;2023-07-31T08:16:16;17.00;99.90
62339;DHT22;48368;53.406;6.214;2023-07-31T08:18:42;17.10;99.90
62339;DHT22;48368;53.406;6.214;2023-07-31T08:21:08;17.10;99.90
62339;DHT22;48368;53.406;6.214;2023-07-31T08:23:34;17.30;99.90
62339;DHT22;48368;53.406;6.214;2023-07-31T08:25:59;17.30;99.90
62339;DHT22;48368;53.406;6.214;2023-07-31T08:28:25;17.20;99.90
62339;DHT22;48368;53.406;6.214;2023-07-31T08:30:51;17.40;99.90
62339;DHT22;48368;53.406;6.214;2023-07-31T08:33:17;17.40;99.90
62339;DHT22;48368;53.406;6.214;2023-07-31T08:35:42;17.30;99.90
62339;DHT22;48368;53.406;6.214;2023-07-31T08:38:08;17.50;99.90
62339;DHT22;48368;53.406;6.214;2023-07-31T08:40:36;17.40;99.90
62339;DHT22;48368;53.406;6.214;2023-07-31T08:43:04;17.60;99.90
62339;DHT22;48368;53.406;6.214;2023-07-31T08:45:30;17.70;99.90
62339;DHT22;48368;53.406;6.214;2023-07-31T08:47:56;17.80;99.90
62339;DHT22;48368;53.406;6.214;2023-07-31T08:50:23;17.90;99.90
62339;DHT22;48368;53.406;6.214;2023-07-31T08:52:50;18.10;99.90
62339;DHT22;48368;53.406;6.214;2023-07-31T08:55:16;18.20;99.90
62339;DHT22;48368;53.406;6.214;2023-07-31T08:57:42;18.10;99.90
62339;DHT22;48368;53.406;6.214;2023-07-31T09:00:10;18.00;99.90
62339;DHT22;48368;53.406;6.214;2023-07-31T09:02:48;18.10;99.90
62339;DHT22;48368;53.406;6.214;2023-07-31T09:05:18;18.00;99.90
62339;DHT22;48368;53.406;6.214;2023-07-31T09:07:47;17.90;99.90
62339;DHT22;48368;53.406;6.214;2023-07-31T09:10:15;18.00;99.90
62339;DHT22;48368;53.406;6.214;2023-07-31T09:12:41;18.10;99.90
62339;DHT22;48368;53.406;6.214;2023-07-31T09:15:08;18.20;99.90
62339;DHT22;48368;53.406;6.214;2023-07-31T09:17:36;18.20;99.90
62339;DHT22;48368;53.406;6.214;2023-07-31T09:20:21;18.10;99.90
62339;DHT22;48368;53.406;6.214;2023-07-31T09:22:48;18.00;99.90
62339;DHT22;48368;53.406;6.214;2023-07-31T09:25:18;18.00;99.90
62339;DHT22;48368;53.406;6.214;2023-07-31T09:27:52;18.10;99.90
62339;DHT22;48368;53.406;6.214;2023-07-31T09:30:18;18.10;99.90
62339;DHT22;48368;53.406;6.214;2023-07-31T09:32:45;18.20;99.90
62339;DHT22;48368;53.406;6.214;2023-07-31T09:35:19;18.10;99.90
62339;DHT22;48368;53.406;6.214;2023-07-31T09:37:50;18.00;99.90
62339;DHT22;48368;53.406;6.214;2023-07-31T09:42:56;18.00;99.90
62339;DHT22;48368;53.406;6.214;2023-07-31T09:45:23;18.20;99.90
62339;DHT22;48368;53.406;6.214;2023-07-31T09:47:49;18.30;99.90
62339;DHT22;48368;53.406;6.214;2023-07-31T09:50:15;18.30;99.90
62339;DHT22;48368;53.406;6.214;2023-07-31T09:52:41;18.30;99.90
62339;DHT22;48368;53.406;6.214;2023-07-31T09:55:08;18.30;99.90
62339;DHT22;48368;53.406;6.214;2023-07-31T09:57:34;18.30;99.90
62339;DHT22;48368;53.406;6.214;2023-07-31T10:00:02;18.30;99.90
62339;DHT22;48368;53.406;6.214;2023-07-31T10:02:28;18.20;99.90
62339;DHT22;48368;53.406;6.214;2023-07-31T10:04:57;18.30;99.90
62339;DHT22;48368;53.406;6.214;2023-07-31T10:07:25;18.40;99.90
62339;DHT22;48368;53.406;6.214;2023-07-31T10:09:55;18.30;99.90
62339;DHT22;48368;53.406;6.214;2023-07-31T10:12:26;18.30;99.90
62339;DHT22;48368;53.406;6.214;2023-07-31T10:14:54;18.20;99.90
62339;DHT22;48368;53.406;6.214;2023-07-31T10:17:24;18.20;99.90
62339;DHT22;48368;53.406;6.214;2023-07-31T10:19:51;18.30;99.90
62339;DHT22;48368;53.406;6.214;2023-07-31T10:22:21;18.40;99.90
62339;DHT22;48368;53.406;6.214;2023-07-31T10:24:50;18.40;99.90
62339;DHT22;48368;53.406;6.214;2023-07-31T10:27:17;18.60;99.90
62339;DHT22;48368;53.406;6.214;2023-07-31T10:29:44;18.60;99.90
62339;DHT22;48368;53.406;6.214;2023-07-31T10:32:13;18.60;99.90
62339;DHT22;48368;53.406;6.214;2023-07-31T10:34:40;18.50;99.90
62339;DHT22;48368;53.406;6.214;2023-07-31T10:37:28;18.70;99.90
62339;DHT22;48368;53.406;6.214;2023-07-31T10:42:37;18.70;99.90
62339;DHT22;48368;53.406;6.214;2023-07-31T10:45:10;18.70;99.90
62339;DHT22;48368;53.406;6.214;2023-07-31T10:47:45;18.70;99.90
62339;DHT22;48368;53.406;6.214;2023-07-31T10:50:22;18.90;99.90
62339;DHT22;48368;53.406;6.214;2023-07-31T10:52:51;19.10;99.90
62339;DHT22;48368;53.406;6.214;2023-07-31T10:55:49;19.20;99.90
62339;DHT22;48368;53.406;6.214;2023-07-31T10:58:19;19.20;99.90
62339;DHT22;48368;53.406;6.214;2023-07-31T11:00:48;19.10;99.90
62339;DHT22;48368;53.406;6.214;2023-07-31T11:03:18;19.10;99.90
62339;DHT22;48368;53.406;6.214;2023-07-31T11:06:29;19.10;99.90
62339;DHT22;48368;53.406;6.214;2023-07-31T11:09:30;19.00;99.90
62339;DHT22;48368;53.406;6.214;2023-07-31T11:11:57;19.10;99.90
62339;DHT22;48368;53.406;6.214;2023-07-31T11:14:23;19.00;99.90
62339;DHT22;48368;53.406;6.214;2023-07-31T11:16:52;18.90;99.90
62339;DHT22;48368;53.406;6.214;2023-07-31T11:19:44;19.00;99.90
62339;DHT22;48368;53.406;6.214;2023-07-31T11:22:16;19.10;99.90
62339;DHT22;48368;53.406;6.214;2023-07-31T11:24:43;19.30;99.90
62339;DHT22;48368;53.406;6.214;2023-07-31T11:27:09;19.40;99.90
62339;DHT22;48368;53.406;6.214;2023-07-31T11:29:34;19.30;99.90
62339;DHT22;48368;53.406;6.214;2023-07-31T11:32:00;19.20;99.90
62339;DHT22;48368;53.406;6.214;2023-07-31T11:34:26;19.30;99.90
62339;DHT22;48368;53.406;6.214;2023-07-31T11:36:55;19.30;99.90
62339;DHT22;48368;53.406;6.214;2023-07-31T11:39:24;19.20;99.90
62339;DHT22;48368;53.406;6.214;2023-07-31T11:41:50;19.20;99.90
62339;DHT22;48368;53.406;6.214;2023-07-31T11:44:15;19.10;99.90
62339;DHT22;48368;53.406;6.214;2023-07-31T11:46:41;19.30;99.90
62339;DHT22;48368;53.406;6.214;2023-07-31T11:49:08;19.40;99.90
62339;DHT22;48368;53.406;6.214;2023-07-31T11:51:39;19.50;99.90
62339;DHT22;48368;53.406;6.214;2023-07-31T11:54:05;19.50;99.90
62339;DHT22;48368;53.406;6.214;2023-07-31T11:56:33;19.50;99.90
62339;DHT22;48368;53.406;6.214;2023-07-31T11:59:00;19.50;99.90
62339;DHT22;48368;53.406;6.214;2023-07-31T12:01:27;19.50;99.90
62339;DHT22;48368;53.406;6.214;2023-07-31T12:03:53;19.50;99.90
62339;DHT22;48368;53.406;6.214;2023-07-31T12:06:20;19.40;99.90
62339;DHT22;48368;53.406;6.214;2023-07-31T12:08:48;19.50;99.90
62339;DHT22;48368;53.406;6.214;2023-07-31T12:11:14;19.40;99.90
62339;DHT22;48368;53.406;6.214;2023-07-31T12:13:40;19.40;99.90
62339;DHT22;48368;53.406;6.214;2023-07-31T12:16:06;19.40;99.90
62339;DHT22;48368;53.406;6.214;2023-07-31T12:18:36;19.30;99.90
62339;DHT22;48368;53.406;6.214;2023-07-31T12:21:05;19.30;99.90
62339;DHT22;48368;53.406;6.214;2023-07-31T12:23:32;19.20;99.90
62339;DHT22;48368;53.406;6.214;2023-07-31T12:26:07;19.20;99.90
62339;DHT22;48368;53.406;6.214;2023-07-31T12:28:49;19.20;99.90
62339;DHT22;48368;53.406;6.214;2023-07-31T12:31:20;19.10;99.90
62339;DHT22;48368;53.406;6.214;2023-07-31T12:33:52;19.20;99.90
62339;DHT22;48368;53.406;6.214;2023-07-31T12:36:22;19.40;99.90
62339;DHT22;48368;53.406;6.214;2023-07-31T12:38:50;19.50;99.90
62339;DHT22;48368;53.406;6.214;2023-07-31T12:41:16;19.50;99.90
62339;DHT22;48368;53.406;6.214;2023-07-31T12:43:43;19.50;99.90
62339;DHT22;48368;53.406;6.214;2023-07-31T12:46:09;19.50;99.90
62339;DHT22;48368;53.406;6.214;2023-07-31T12:48:36;19.40;99.90
62339;DHT22;48368;53.406;6.214;2023-07-31T12:51:02;19.40;99.90
62339;DHT22;48368;53.406;6.214;2023-07-31T12:53:28;19.40;99.90
62339;DHT22;48368;53.406;6.214;2023-07-31T12:55:56;19.40;99.90
62339;DHT22;48368;53.406;6.214;2023-07-31T12:58:21;19.50;99.90
62339;DHT22;48368;53.406;6.214;2023-07-31T13:00:47;19.50;99.90
62339;DHT22;48368;53.406;6.214;2023-07-31T13:03:13;19.50;99.90
62339;DHT22;48368;53.406;6.214;2023-07-31T13:05:38;19.50;99.90
62339;DHT22;48368;53.406;6.214;2023-07-31T13:08:04;19.50;99.90
62339;DHT22;48368;53.406;6.214;2023-07-31T13:10:30;19.40;99.90
62339;DHT22;48368;53.406;6.214;2023-07-31T13:12:56;19.30;99.90
62339;DHT22;48368;53.406;6.214;2023-07-31T13:15:21;19.30;99.90
62339;DHT22;48368;53.406;6.214;2023-07-31T13:17:47;19.20;99.90
62339;DHT22;48368;53.406;6.214;2023-07-31T13:20:13;19.20;99.90
62339;DHT22;48368;53.406;6.214;2023-07-31T13:22:39;19.20;99.90
62339;DHT22;48368;53.406;6.214;2023-07-31T13:25:05;19.10;99.90
62339;DHT22;48368;53.406;6.214;2023-07-31T13:27:31;19.20;99.90
62339;DHT22;48368;53.406;6.214;2023-07-31T13:29:57;19.30;99.90
62339;DHT22;48368;53.406;6.214;2023-07-31T13:32:23;19.30;99.90
62339;DHT22;48368;53.406;6.214;2023-07-31T13:34:49;19.40;99.90
62339;DHT22;48368;53.406;6.214;2023-07-31T13:37:15;19.40;99.90
62339;DHT22;48368;53.406;6.214;2023-07-31T13:39:41;19.30;99.90
62339;DHT22;48368;53.406;6.214;2023-07-31T13:42:08;19.30;99.90
62339;DHT22;48368;53.406;6.214;2023-07-31T13:44:38;19.20;99.90
62339;DHT22;48368;53.406;6.214;2023-07-31T13:47:03;19.20;99.90
62339;DHT22;48368;53.406;6.214;2023-07-31T13:49:29;19.30;99.90
62339;DHT22;48368;53.406;6.214;2023-07-31T13:51:55;19.40;99.90
62339;DHT22;48368;53.406;6.214;2023-07-31T13:54:24;19.50;99.90
62339;DHT22;48368;53.406;6.214;2023-07-31T13:56:53;19.50;99.90
62339;DHT22;48368;53.406;6.214;2023-07-31T13:59:19;19.60;99.90
62339;DHT22;48368;53.406;6.214;2023-07-31T14:01:48;19.60;99.90
62339;DHT22;48368;53.406;6.214;2023-07-31T14:04:16;19.70;99.90
62339;DHT22;48368;53.406;6.214;2023-07-31T14:06:44;19.80;99.90
62339;DHT22;48368;53.406;6.214;2023-07-31T14:09:10;19.70;99.90
62339;DHT22;48368;53.406;6.214;2023-07-31T14:11:35;19.70;99.90
62339;DHT22;48368;53.406;6.214;2023-07-31T14:14:01;19.70;99.90
62339;DHT22;48368;53.406;6.214;2023-07-31T14:16:27;19.70;99.90
62339;DHT22;48368;53.406;6.214;2023-07-31T14:18:54;19.70;99.90
62339;DHT22;48368;53.406;6.214;2023-07-31T14:21:20;19.80;99.90
62339;DHT22;48368;53.406;6.214;2023-07-31T14:23:45;19.70;99.90
62339;DHT22;48368;53.406;6.214;2023-07-31T14:26:11;19.70;99.90
62339;DHT22;48368;53.406;6.214;2023-07-31T14:28:37;19.80;99.90
62339;DHT22;48368;53.406;6.214;2023-07-31T14:31:03;19.80;99.90
62339;DHT22;48368;53.406;6.214;2023-07-31T14:33:28;19.70;99.90
62339;DHT22;48368;53.406;6.214;2023-07-31T14:35:54;19.70;99.90
62339;DHT22;48368;53.406;6.214;2023-07-31T14:38:20;19.70;99.90
62339;DHT22;48368;53.406;6.214;2023-07-31T14:40:46;19.80;99.90
62339;DHT22;48368;53.406;6.214;2023-07-31T14:43:11;19.80;99.90
62339;DHT22;48368;53.406;6.214;2023-07-31T14:45:37;19.80;99.90
62339;DHT22;48368;53.406;6.214;2023-07-31T14:48:03;19.80;99.90
62339;DHT22;48368;53.406;6.214;2023-07-31T14:50:28;19.80;99.90
62339;DHT22;48368;53.406;6.214;2023-07-31T14:52:54;19.70;99.90
62339;DHT22;48368;53.406;6.214;2023-07-31T14:55:20;19.70;99.90
62339;DHT22;48368;53.406;6.214;2023-07-31T14:57:45;19.70;99.90
62339;DHT22;48368;53.406;6.214;2023-07-31T15:00:11;19.70;99.90
62339;DHT22;48368;53.406;6.214;2023-07-31T15:02:38;19.70;99.90
62339;DHT22;48368;53.406;6.214;2023-07-31T15:05:04;19.60;99.90
62339;DHT22;48368;53.406;6.214;2023-07-31T15:07:30;19.60;99.90
62339;DHT22;48368;53.406;6.214;2023-07-31T15:09:55;19.50;99.90
62339;DHT22;48368;53.406;6.214;2023-07-31T15:12:21;19.50;99.90
62339;DHT22;48368;53.406;6.214;2023-07-31T15:14:48;19.60;99.90
62339;DHT22;48368;53.406;6.214;2023-07-31T15:17:14;19.50;99.90
62339;DHT22;48368;53.406;6.214;2023-07-31T15:19:40;19.50;99.90
62339;DHT22;48368;53.406;6.214;2023-07-31T15:22:06;19.50;99.90
62339;DHT22;48368;53.406;6.214;2023-07-31T15:24:32;19.50;99.90
62339;DHT22;48368;53.406;6.214;2023-07-31T15:27:04;19.50;99.90
62339;DHT22;48368;53.406;6.214;2023-07-31T15:29:42;19.50;99.90
62339;DHT22;48368;53.406;6.214;2023-07-31T15:32:07;19.40;99.90
62339;DHT22;48368;53.406;6.214;2023-07-31T15:34:33;19.40;99.90
62339;DHT22;48368;53.406;6.214;2023-07-31T15:36:59;19.30;99.90
62339;DHT22;48368;53.406;6.214;2023-07-31T15:39:24;19.30;99.90